Relevés horaires Bierset (Belgique)


Relevés horaires à Bierset - Jeudi 26 Nov. 2020
Heure UTC1 Température [°C] Vent [km/h] Hum. [%] Pres.4 [hPa] Visi. [Km] Nébu. [octa] Préc.5 [mm] Cond.
2m. Res. Ros. Dir.2 Vit. Moy. Raf.3
23:00 5.9 4.9 3.8 SSE 5.6 5.6 13.0 86 1020.7(0.1/3h) 15 7/8 -- --
22:00 6.1 5.1 4.0 SSE 5.6 5.6 11.1 86 1020.6(0.4/3h) 15 3/8 -- --
21:00 6.3 6.3 3.9 S 3.7 5.6 11.1 85 1020.6(0.3/3h) 15 1/8 -- --
20:00 6.9 6.9 4.5 S 3.7 3.7 9.3 85 1020.4(-0.1/3h) 15 1/8 -- --
19:00 6.8 6.8 5.3 SE 3.7 5.6 7.4 90 1020.1(-0.1/3h) 10 1/8 -- --
18:00 7.9 7.9 5.2 SE 3.7 7.4 16.7 83 1020.1(-0.2/3h) 12 1/8 0/12h
--
17:00 8.3 8.3 5.2 ENE 3.7 3.7 5.6 81 1020.2(0.2/3h) 11 1/8 -- --
16:00 7.8 7.8 5.4 N 3.7 3.7 5.6 85 1020.2(-0.4/3h) 15 1/8 -- --
15:00 9.3 9.3 6.3 NE 1.9 7.4 16.7 81 1020.2(-0.8/3h) 20 3/8 -- --
14:00 10.4 10 5.6 SE 5.6 5.6 16.7 72 1019.9(-1.3/3h) 20 3/8 -- --
13:00 9.4 8.9 5.3 SSE 5.6 7.4 16.7 76 1020.4(-1.2/3h) 20 4/8 -- --
12:00 9.5 9.5 5.5 SSE 3.7 9.3 18.5 76 1021(-0.6/3h) 20 6/8 0/6h
--
11:00 9.0 9.0 5.3 S 3.7 5.6 13.0 78 1021.4(0.0/3h) 20 7/8 -- --
10:00 8.2 7.5 5.0 SSE 5.6 5.6 7.4 80 1021.7(0.5/3h) 20 7/8 -- --
09:00 7.3 7.3 4.4 S 3.7 9.3 18.5 82 1021.8(0.5/3h) 20 7/8 -- --
08:00 8.0 6.8 4.6 SE 7.4 9.3 18.5 79 1021.5(0.5/3h) 20 7/8 -- --
07:00 7.4 6.6 4.5 SSE 5.6 7.4 13.0 82 1021.3(0.4/3h) 20 7/8 -- --
06:00 6.9 6.9 4.5 SSE 3.7 9.3 18.5 85 1021.3(0.5/3h) 20 7/8 0/12h
--
05:00 6.7 5.3 4.4 SSE 7.4 9.3 13.0 85 1021(0.2/3h) 20 6/8 -- --
04:00 7.1 5.7 4.5 SSE 7.4 9.3 13.0 84 1020.9(0.4/3h) 20 6/8 -- --
03:00 6.7 5.3 4.3 SSE 7.4 7.4 16.7 85 1020.8(0.3/3h) 13 4/8 -- --
02:00 6.6 6.6 4.3 S 3.7 7.4 13.0 85 1020.8(0.6/3h) 13 3/8 -- --
01:00 6.9 6 4.4 S 5.6 7.4 16.7 84 1020.5(0.7/3h) 15 3/8 -- --
00:00 7.7 6.4 4.9 S 7.4 11.1 18.5 82 1020.4(0.8/3h) 18 6/8 0/6h
0/24h
--

1 Coordinated Universal Time. Actuellement il est 23:00 locale et 21:00 UTC.

2 Le vent souffle depuis la direction indiquée vers la direction oposée.

3 Les rafales max. sont disponible 40 min après l'heure du relevé.

4 Pour les stations d'altitude (plus de 600m) le géopotentiel du niveau le plus proche de la pression obligatoire est indiqué.

5 Les stations disposant d'un diffuseur peuvent indiquer "trace". Cela signifie que des précipitations ont touchés le sol mais que la quantité est inférieure à 0.1 mm.

Récapitulatif de la journée
Température [°C] Vent [km/h] Ensoleillement4 [h] Precipitations totale5 [mm] Pression [Hpa]
Min1 Max.2 Moy.3 Max. Min Max.
5.9 10.7 7 18.5 0 h 0 min 0 1019.9 1021.8

1 Température minimale relevée entre 18:00 UTC la veille et 18:00 UTC le jour donné.

2 Température maximale relevée entre 06:00 UTC le jour donné et 06:00 UTC le lendemain.

3 Vent moyen de la journée basé sur les relevés horaires.

4 Ensoleillement en heures relevé entre 06:00 UTC la veille et 06:00 UTC le jour donné.

5 Précipitations totales tombées entre 06:00 UTC la jour donné et 06:00 UTC le lendemain.

Graphiques horaires